createdAt,value
2018-12-04T00:00:38.328Z,9.70
2018-12-04T00:03:08.508Z,9.69
2018-12-04T00:05:38.057Z,9.68
2018-12-04T00:08:07.632Z,9.62
2018-12-04T00:10:36.877Z,9.56
2018-12-04T00:13:06.422Z,9.50
2018-12-04T00:15:36.030Z,9.48
2018-12-04T00:18:05.154Z,9.47
2018-12-04T00:20:34.185Z,9.43
2018-12-04T00:23:03.197Z,9.39
2018-12-04T00:25:32.535Z,9.37
2018-12-04T00:28:01.814Z,9.31
2018-12-04T00:30:31.085Z,9.29
2018-12-04T00:33:00.618Z,9.26
2018-12-04T00:35:29.910Z,9.25
2018-12-04T00:37:59.491Z,9.23
2018-12-04T00:40:29.818Z,9.19
2018-12-04T00:42:59.549Z,9.16
2018-12-04T00:45:28.935Z,9.13
2018-12-04T00:47:58.487Z,9.12
2018-12-04T00:50:29.803Z,9.10
2018-12-04T00:52:59.056Z,9.07
2018-12-04T00:55:28.136Z,9.05
2018-12-04T00:57:57.574Z,9.06
2018-12-04T01:00:26.516Z,9.07
2018-12-04T01:02:55.758Z,9.06
2018-12-04T01:05:25.027Z,9.07
2018-12-04T01:07:54.233Z,9.04
2018-12-04T01:10:23.692Z,9.06
2018-12-04T01:12:52.950Z,9.07
2018-12-04T01:15:22.489Z,9.07
2018-12-04T01:17:51.756Z,9.06
2018-12-04T01:20:20.704Z,9.02
2018-12-04T01:22:49.967Z,8.97
2018-12-04T01:25:19.528Z,8.95
2018-12-04T01:27:48.776Z,8.93
2018-12-04T01:30:18.048Z,8.94
2018-12-04T01:32:47.024Z,8.95
2018-12-04T01:35:16.291Z,8.96
2018-12-04T01:37:45.723Z,8.98
2018-12-04T01:40:14.975Z,8.96
2018-12-04T01:42:44.829Z,8.94
2018-12-04T01:45:13.743Z,8.96
2018-12-04T01:47:43.253Z,8.94
2018-12-04T01:50:13.003Z,8.94
2018-12-04T01:52:42.206Z,8.89
2018-12-04T01:55:11.779Z,8.89
2018-12-04T01:57:41.114Z,8.87
2018-12-04T02:00:10.855Z,8.87
2018-12-04T02:02:40.298Z,8.86
2018-12-04T02:05:09.848Z,8.82
2018-12-04T02:07:39.284Z,8.79
2018-12-04T02:10:08.761Z,8.77
2018-12-04T02:12:38.316Z,8.76
2018-12-04T02:15:07.549Z,8.73
2018-12-04T02:17:37.387Z,8.70
2018-12-04T02:20:06.273Z,8.66
2018-12-04T02:22:35.836Z,8.64
2018-12-04T02:25:04.860Z,8.64
2018-12-04T02:27:34.407Z,8.59
2018-12-04T02:30:03.683Z,8.56
2018-12-04T02:32:33.132Z,8.50
2018-12-04T02:35:02.402Z,8.52
2018-12-04T02:37:31.957Z,8.51
2018-12-04T02:40:02.201Z,8.45
2018-12-04T02:42:31.194Z,8.43
2018-12-04T02:45:00.136Z,8.41
2018-12-04T02:47:29.395Z,8.39
2018-12-04T02:49:58.934Z,8.36
2018-12-04T02:52:29.246Z,8.36
2018-12-04T02:54:59.750Z,8.33
2018-12-04T02:57:29.042Z,8.33
2018-12-04T02:59:58.140Z,8.29
2018-12-04T03:02:27.400Z,8.26
2018-12-04T03:04:56.408Z,8.23
2018-12-04T03:07:25.937Z,8.22
2018-12-04T03:09:55.200Z,8.23
2018-12-04T03:12:24.939Z,8.18
2018-12-04T03:14:54.199Z,8.18
2018-12-04T03:17:24.289Z,8.20
2018-12-04T03:19:53.820Z,8.16
2018-12-04T03:22:24.200Z,8.12
2018-12-04T03:24:53.456Z,8.11
2018-12-04T03:27:23.030Z,8.08
2018-12-04T03:29:52.290Z,8.05
2018-12-04T03:32:21.525Z,8.05
2018-12-04T03:34:50.741Z,8.04
2018-12-04T03:37:20.631Z,8.02
2018-12-04T03:39:50.072Z,8.00
2018-12-04T03:42:19.345Z,7.98
2018-12-04T03:44:48.915Z,7.97
2018-12-04T03:47:18.176Z,7.97
2018-12-04T03:49:47.434Z,7.92
2018-12-04T03:52:16.800Z,7.89
2018-12-04T03:54:46.246Z,7.89
2018-12-04T03:57:15.514Z,7.89
2018-12-04T03:59:45.079Z,7.88
2018-12-04T04:02:14.326Z,7.88
2018-12-04T04:04:44.187Z,7.88
2018-12-04T04:07:13.438Z,7.86
2018-12-04T04:09:42.976Z,7.82
2018-12-04T04:12:12.240Z,7.77
2018-12-04T04:14:41.977Z,7.74
2018-12-04T04:17:11.521Z,7.71
2018-12-04T04:19:41.329Z,7.68
2018-12-04T04:22:10.755Z,7.66
2018-12-04T04:24:40.581Z,7.62
2018-12-04T04:27:10.125Z,7.60
2018-12-04T04:29:39.402Z,7.54
2018-12-04T04:32:08.607Z,7.51
2018-12-04T04:34:37.828Z,7.50
2018-12-04T04:37:07.842Z,7.49
2018-12-04T04:39:37.448Z,7.45
2018-12-04T04:42:07.007Z,7.42
2018-12-04T04:44:36.387Z,7.41
2018-12-04T04:47:06.185Z,7.34
2018-12-04T04:49:35.441Z,7.29
2018-12-04T04:52:04.372Z,7.24
2018-12-04T04:54:33.639Z,7.24
2018-12-04T04:57:02.843Z,7.26
2018-12-04T04:59:32.418Z,7.21
2018-12-04T05:02:01.693Z,7.21
2018-12-04T05:04:31.130Z,7.17
2018-12-04T05:07:00.399Z,7.14
2018-12-04T05:09:29.676Z,7.10
2018-12-04T05:11:59.265Z,7.11
2018-12-04T05:14:29.601Z,7.09
2018-12-04T05:16:58.765Z,7.07
2018-12-04T05:19:29.545Z,7.05
2018-12-04T05:21:58.770Z,7.04
2018-12-04T05:24:29.597Z,7.03
2018-12-04T05:26:59.163Z,7.01
2018-12-04T05:29:29.547Z,7.00
2018-12-04T05:31:58.847Z,6.97
2018-12-04T05:34:28.256Z,6.97
2018-12-04T05:36:57.530Z,6.94
2018-12-04T05:39:27.272Z,6.92
2018-12-04T05:41:56.540Z,6.95
2018-12-04T05:44:25.795Z,6.95
2018-12-04T05:46:55.261Z,6.93
2018-12-04T05:49:24.513Z,6.89
2018-12-04T05:51:53.783Z,6.85
2018-12-04T05:54:23.364Z,6.88
2018-12-04T05:56:53.063Z,6.97
2018-12-04T05:59:22.340Z,7.02
2018-12-04T06:01:51.580Z,7.06
2018-12-04T06:04:20.836Z,7.08
2018-12-04T06:06:50.405Z,7.07
2018-12-04T06:09:19.671Z,7.04
2018-12-04T06:11:49.996Z,7.03
2018-12-04T06:14:19.353Z,7.02
2018-12-04T06:16:48.723Z,7.00
2018-12-04T06:19:17.625Z,6.96
2018-12-04T06:21:46.561Z,6.92
2018-12-04T06:24:16.284Z,6.88
2018-12-04T06:26:45.623Z,6.88
2018-12-04T06:29:14.912Z,6.91
2018-12-04T06:31:44.626Z,6.91
2018-12-04T06:34:14.102Z,6.88
2018-12-04T06:36:43.654Z,6.83
2018-12-04T06:39:13.377Z,6.82
2018-12-04T06:41:42.667Z,6.77
2018-12-04T06:44:11.968Z,6.79
2018-12-04T06:46:41.524Z,6.73
2018-12-04T06:49:10.770Z,6.72
2018-12-04T06:51:40.314Z,6.66
2018-12-04T06:54:09.568Z,6.61
2018-12-04T06:56:38.927Z,6.62
2018-12-04T06:59:08.447Z,6.60
2018-12-04T07:01:37.701Z,6.59
2018-12-04T07:04:06.972Z,6.57
2018-12-04T07:06:36.537Z,6.61
2018-12-04T07:09:05.951Z,6.63
2018-12-04T07:11:35.176Z,6.62
2018-12-04T07:14:03.876Z,6.64
2018-12-04T07:16:33.771Z,6.59
2018-12-04T07:19:03.024Z,6.67
2018-12-04T07:21:32.587Z,6.68
2018-12-04T07:24:01.836Z,6.67
2018-12-04T07:26:31.152Z,6.66
2018-12-04T07:29:00.584Z,6.62
2018-12-04T07:31:30.532Z,6.65
2018-12-04T07:33:59.801Z,6.79
2018-12-04T07:36:29.990Z,6.83
2018-12-04T07:38:59.548Z,6.85
2018-12-04T07:41:29.933Z,6.86
2018-12-04T07:44:00.483Z,6.87
2018-12-04T07:46:30.071Z,6.97
2018-12-04T07:48:59.622Z,7.03
2018-12-04T07:51:30.903Z,7.14
2018-12-04T07:54:00.156Z,7.23
2018-12-04T07:56:30.007Z,7.27
2018-12-04T07:58:59.259Z,7.21
2018-12-04T08:01:28.256Z,7.11
2018-12-04T08:03:57.687Z,6.99
2018-12-04T08:06:26.703Z,6.91
2018-12-04T08:08:55.964Z,6.84
2018-12-04T08:11:24.892Z,6.85
2018-12-04T08:13:54.615Z,6.81
2018-12-04T08:16:23.899Z,6.81
2018-12-04T08:18:53.151Z,6.75
2018-12-04T08:21:22.688Z,6.86
2018-12-04T08:23:51.943Z,6.87
2018-12-04T08:26:20.868Z,6.94
2018-12-04T08:28:50.119Z,7.10
2018-12-04T08:31:20.618Z,7.27
2018-12-04T08:33:49.892Z,7.42
2018-12-04T08:36:19.623Z,7.48
2018-12-04T08:38:48.890Z,7.44
2018-12-04T08:41:18.671Z,7.40
2018-12-04T08:43:48.211Z,7.41
2018-12-04T08:46:17.726Z,7.45
2018-12-04T08:48:47.004Z,7.45
2018-12-04T08:51:15.936Z,7.49
2018-12-04T08:53:45.503Z,7.63
2018-12-04T08:56:14.846Z,7.66
2018-12-04T08:58:44.106Z,7.76
2018-12-04T09:01:13.520Z,7.88
2018-12-04T09:03:43.043Z,8.14
2018-12-04T09:06:12.306Z,8.44
2018-12-04T09:08:42.056Z,8.67
2018-12-04T09:11:11.288Z,8.73
2018-12-04T09:13:40.830Z,8.90
2018-12-04T09:16:10.103Z,9.05
2018-12-04T09:18:39.388Z,9.37
2018-12-04T09:21:08.531Z,9.71
2018-12-04T09:23:38.097Z,9.84
2018-12-04T09:26:07.318Z,9.88
2018-12-04T09:28:36.005Z,10.09
2018-12-04T09:31:05.243Z,10.39
2018-12-04T09:33:35.011Z,10.39
2018-12-04T09:36:04.251Z,10.49
2018-12-04T09:38:34.124Z,10.57
2018-12-04T09:41:03.044Z,10.69
2018-12-04T09:43:32.335Z,10.56
2018-12-04T09:46:02.487Z,10.40
2018-12-04T09:48:32.144Z,10.32
2018-12-04T09:51:01.410Z,10.23
2018-12-04T09:53:30.965Z,10.23
2018-12-04T09:56:00.397Z,10.31
2018-12-04T09:58:30.280Z,10.56
2018-12-04T10:01:00.703Z,10.82
2018-12-04T10:03:30.298Z,10.97
2018-12-04T10:05:59.674Z,10.88
2018-12-04T10:08:29.787Z,10.90
2018-12-04T10:10:59.044Z,10.98
2018-12-04T10:13:28.729Z,11.09
2018-12-04T10:15:57.984Z,11.18
2018-12-04T10:18:26.897Z,11.25
2018-12-04T10:20:56.109Z,11.38
2018-12-04T10:23:25.381Z,11.41
2018-12-04T10:25:54.933Z,11.37
2018-12-04T10:28:23.874Z,11.26
2018-12-04T10:30:58.512Z,11.16
2018-12-04T10:33:28.111Z,11.19
2018-12-04T10:35:57.376Z,11.30
2018-12-04T10:38:26.943Z,11.46
2018-12-04T10:40:56.199Z,11.53
2018-12-04T10:43:25.177Z,11.55
2018-12-04T10:45:54.447Z,11.76
2018-12-04T10:48:23.441Z,11.87
2018-12-04T10:50:52.980Z,11.92
2018-12-04T10:53:22.257Z,11.83
2018-12-04T10:55:51.510Z,11.85
2018-12-04T10:58:21.548Z,11.97
2018-12-04T11:00:56.172Z,11.95
2018-12-04T11:03:24.932Z,11.79
2018-12-04T11:05:54.232Z,11.66
2018-12-04T11:08:23.462Z,11.58
2018-12-04T11:10:53.015Z,11.66
2018-12-04T11:13:22.308Z,11.78
2018-12-04T11:15:51.234Z,11.80
2018-12-04T11:18:20.168Z,11.93
2018-12-04T11:20:49.433Z,12.07
2018-12-04T11:23:19.150Z,12.24
2018-12-04T11:25:48.468Z,12.42
2018-12-04T11:28:18.008Z,12.46
2018-12-04T11:30:47.232Z,12.28
2018-12-04T11:33:16.498Z,12.11
2018-12-04T11:35:46.057Z,12.23
2018-12-04T11:38:15.311Z,12.28
2018-12-04T11:40:44.601Z,12.36
2018-12-04T11:43:13.826Z,12.40
2018-12-04T11:45:43.478Z,12.46
2018-12-04T11:48:12.737Z,12.42
2018-12-04T11:50:42.301Z,12.35
2018-12-04T11:53:11.564Z,12.30
2018-12-04T11:55:41.013Z,12.48
2018-12-04T11:58:11.179Z,12.90
2018-12-04T12:00:40.216Z,13.20
2018-12-04T12:03:10.036Z,13.28
2018-12-04T12:05:39.739Z,13.08
2018-12-04T12:08:09.241Z,12.94
2018-12-04T12:10:38.514Z,13.08
2018-12-04T12:13:07.912Z,13.40
2018-12-04T12:15:37.477Z,13.28
2018-12-04T12:18:06.728Z,13.06
2018-12-04T12:20:36.318Z,12.93
2018-12-04T12:23:05.232Z,12.71
2018-12-04T12:25:34.594Z,12.66
2018-12-04T12:28:03.856Z,12.61
2018-12-04T12:30:33.417Z,12.46
2018-12-04T12:33:02.695Z,12.49
2018-12-04T12:35:32.436Z,12.58
2018-12-04T12:38:01.702Z,12.75
2018-12-04T12:40:32.476Z,12.87
2018-12-04T12:43:01.904Z,12.78
2018-12-04T12:45:31.830Z,12.83
2018-12-04T12:48:01.338Z,12.93
2018-12-04T12:50:30.797Z,12.99
2018-12-04T12:53:00.340Z,13.22
2018-12-04T12:55:30.738Z,13.29
2018-12-04T12:58:00.011Z,13.16
2018-12-04T13:00:30.799Z,12.99
2018-12-04T13:03:00.359Z,12.93
2018-12-04T13:05:30.736Z,12.77
2018-12-04T13:08:00.300Z,12.70
2018-12-04T13:10:30.746Z,12.81
2018-12-04T13:12:59.724Z,13.07
2018-12-04T13:15:30.841Z,13.24
2018-12-04T13:18:00.417Z,13.07
2018-12-04T13:20:30.786Z,12.94
2018-12-04T13:23:00.419Z,12.94
2018-12-04T13:25:30.442Z,12.83
2018-12-04T13:27:59.895Z,12.51
2018-12-04T13:30:30.875Z,12.49
2018-12-04T13:33:00.410Z,12.55
2018-12-04T13:35:30.764Z,12.68
2018-12-04T13:38:00.094Z,12.60
2018-12-04T13:40:30.552Z,12.35
2018-12-04T13:42:59.495Z,12.24
2018-12-04T13:45:28.756Z,12.19
2018-12-04T13:48:00.849Z,12.13
2018-12-04T13:50:26.721Z,12.03
2018-12-04T13:52:57.347Z,11.86
2018-12-04T13:55:26.623Z,11.63
2018-12-04T13:57:55.902Z,11.28
2018-12-04T14:00:25.434Z,10.98
2018-12-04T14:02:54.380Z,10.78
2018-12-04T14:05:23.841Z,10.65
2018-12-04T14:07:53.072Z,10.61
2018-12-04T14:10:22.279Z,10.60
2018-12-04T14:12:51.568Z,10.56
2018-12-04T14:15:21.070Z,10.63
2018-12-04T14:17:50.543Z,10.69
2018-12-04T14:20:19.806Z,10.82
2018-12-04T14:22:49.071Z,10.90
2018-12-04T14:25:18.615Z,10.90
2018-12-04T14:27:49.202Z,10.81
2018-12-04T14:30:17.454Z,10.59
2018-12-04T14:32:47.113Z,10.45
2018-12-04T14:35:16.704Z,10.37
2018-12-04T14:37:45.920Z,10.33
2018-12-04T14:40:15.171Z,10.34
2018-12-04T14:42:44.732Z,10.45
2018-12-04T14:45:13.657Z,10.50
2018-12-04T14:47:43.416Z,10.52
2018-12-04T14:50:12.732Z,10.52
2018-12-04T14:52:42.183Z,10.51
2018-12-04T14:55:11.731Z,10.48
2018-12-04T14:57:40.692Z,10.48
2018-12-04T15:00:09.347Z,10.42
2018-12-04T15:02:38.576Z,10.36
2018-12-04T15:05:07.266Z,10.35
2018-12-04T15:07:36.034Z,10.22
2018-12-04T15:10:05.039Z,10.10
2018-12-04T15:12:35.891Z,9.97
2018-12-04T15:15:04.786Z,9.91
2018-12-04T15:17:34.808Z,9.82
2018-12-04T15:20:03.716Z,9.75
2018-12-04T15:22:33.098Z,9.72
2018-12-04T15:25:03.317Z,9.68
2018-12-04T15:27:32.391Z,9.60
2018-12-04T15:30:01.844Z,9.50
2018-12-04T15:32:31.167Z,9.37
2018-12-04T15:35:00.692Z,9.25
2018-12-04T15:37:31.239Z,9.14
2018-12-04T15:40:01.016Z,9.06
2018-12-04T15:42:31.158Z,8.98
2018-12-04T15:45:00.687Z,8.91
2018-12-04T15:47:31.120Z,8.82
2018-12-04T15:50:00.417Z,8.77
2018-12-04T15:52:31.275Z,8.71
2018-12-04T15:55:00.788Z,8.59
2018-12-04T15:57:31.200Z,8.49
2018-12-04T16:00:00.606Z,8.39
2018-12-04T16:02:30.794Z,8.30
2018-12-04T16:05:00.053Z,8.16
2018-12-04T16:07:29.332Z,8.07
2018-12-04T16:09:58.872Z,7.98
2018-12-04T16:12:29.045Z,7.95
2018-12-04T16:14:58.872Z,7.96
2018-12-04T16:17:28.134Z,7.93
2018-12-04T16:19:57.878Z,7.88
2018-12-04T16:22:27.908Z,7.85
2018-12-04T16:24:57.167Z,7.84
2018-12-04T16:27:26.426Z,7.80
2018-12-04T16:29:56.191Z,7.78
2018-12-04T16:32:25.104Z,7.77
2018-12-04T16:34:54.029Z,7.73
2018-12-04T16:37:23.065Z,7.72
2018-12-04T16:39:52.315Z,7.68
2018-12-04T16:42:22.316Z,7.65
2018-12-04T16:44:51.842Z,7.55
2018-12-04T16:47:20.786Z,7.51
2018-12-04T16:49:50.057Z,7.47
2018-12-04T16:52:19.207Z,7.45
2018-12-04T16:54:48.473Z,7.42
2018-12-04T16:57:18.514Z,7.39
2018-12-04T16:59:48.341Z,7.33
2018-12-04T17:02:17.259Z,7.26
2018-12-04T17:04:46.582Z,7.19
2018-12-04T17:07:16.317Z,7.15
2018-12-04T17:09:45.581Z,7.11
2018-12-04T17:12:15.047Z,7.07
2018-12-04T17:14:44.588Z,7.07
2018-12-04T17:17:13.907Z,7.04
2018-12-04T17:19:43.352Z,7.01
2018-12-04T17:22:12.283Z,6.98
2018-12-04T17:24:41.530Z,6.96
2018-12-04T17:27:10.999Z,6.93
2018-12-04T17:29:40.540Z,6.92
2018-12-04T17:32:10.110Z,6.88
2018-12-04T17:34:39.084Z,6.86
2018-12-04T17:37:08.457Z,6.84
2018-12-04T17:39:38.643Z,6.80
2018-12-04T17:42:08.099Z,6.76
2018-12-04T17:44:40.389Z,6.74
2018-12-04T17:47:06.641Z,6.68
2018-12-04T17:49:36.220Z,6.64
2018-12-04T17:52:05.675Z,6.57
2018-12-04T17:54:35.358Z,6.49
2018-12-04T17:57:04.019Z,6.45
2018-12-04T17:59:33.378Z,6.42
2018-12-04T18:02:02.646Z,6.37
2018-12-04T18:04:31.648Z,6.33
2018-12-04T18:07:00.698Z,6.29
2018-12-04T18:09:31.499Z,6.26
2018-12-04T18:12:00.486Z,6.24
2018-12-04T18:14:29.423Z,6.24
2018-12-04T18:16:58.674Z,6.24
2018-12-04T18:19:28.014Z,6.23
2018-12-04T18:21:56.942Z,6.22
2018-12-04T18:24:26.208Z,6.19
2018-12-04T18:26:55.458Z,6.15
2018-12-04T18:29:25.458Z,6.12
2018-12-04T18:31:54.737Z,6.12
2018-12-04T18:34:24.276Z,6.13
2018-12-04T18:36:53.540Z,6.12
2018-12-04T18:39:22.852Z,6.11
2018-12-04T18:41:51.891Z,6.10
2018-12-04T18:44:21.107Z,6.09
2018-12-04T18:46:50.838Z,6.09
2018-12-04T18:49:20.323Z,6.07
2018-12-04T18:51:49.386Z,6.05
2018-12-04T18:54:18.653Z,6.01
2018-12-04T18:56:48.188Z,5.99
2018-12-04T18:59:17.467Z,5.96
2018-12-04T19:01:47.019Z,5.93
2018-12-04T19:04:16.039Z,5.89
2018-12-04T19:06:45.627Z,5.86
2018-12-04T19:09:15.167Z,5.81
2018-12-04T19:11:44.447Z,5.79
2018-12-04T19:14:14.176Z,5.76
2018-12-04T19:16:43.406Z,5.73
2018-12-04T19:19:12.696Z,5.70
2018-12-04T19:21:41.920Z,5.68
2018-12-04T19:24:12.064Z,5.67
2018-12-04T19:26:40.982Z,5.65
2018-12-04T19:29:10.331Z,5.63
2018-12-04T19:31:39.600Z,5.59
2018-12-04T19:34:08.889Z,5.52
2018-12-04T19:36:38.443Z,5.43
2018-12-04T19:39:07.153Z,5.31
2018-12-04T19:41:36.121Z,5.18
2018-12-04T19:44:04.819Z,5.11
2018-12-04T19:46:35.915Z,5.04
2018-12-04T19:49:05.184Z,4.97
2018-12-04T19:51:34.764Z,4.94
2018-12-04T19:54:03.973Z,4.92
2018-12-04T19:56:34.710Z,4.91
2018-12-04T19:59:04.409Z,4.94
2018-12-04T20:01:33.855Z,4.94
2018-12-04T20:04:03.413Z,4.95
2018-12-04T20:06:32.540Z,4.95
2018-12-04T20:09:01.572Z,4.95
2018-12-04T20:11:31.790Z,4.94
2018-12-04T20:14:01.347Z,4.92
2018-12-04T20:16:31.768Z,4.91
2018-12-04T20:19:01.033Z,4.91
2018-12-04T20:21:31.649Z,4.92
2018-12-04T20:24:00.846Z,4.93
2018-12-04T20:26:31.844Z,4.92
2018-12-04T20:29:01.426Z,4.92
2018-12-04T20:31:31.879Z,4.91
2018-12-04T20:34:00.912Z,4.91
2018-12-04T20:36:31.517Z,4.90
2018-12-04T20:39:00.553Z,4.87
2018-12-04T20:41:29.548Z,4.82
2018-12-04T20:43:58.816Z,4.80
2018-12-04T20:46:28.107Z,4.82
2018-12-04T20:48:57.616Z,4.86
2018-12-04T20:51:26.872Z,4.88
2018-12-04T20:53:56.430Z,4.87
2018-12-04T20:56:25.694Z,4.89
2018-12-04T20:58:54.646Z,4.89
2018-12-04T21:01:23.658Z,4.89
2018-12-04T21:03:52.949Z,4.91
2018-12-04T21:06:22.508Z,4.93
2018-12-04T21:08:52.452Z,4.92
2018-12-04T21:11:22.412Z,4.92
2018-12-04T21:13:51.367Z,4.92
2018-12-04T21:16:20.715Z,4.94
2018-12-04T21:18:50.010Z,4.95
2018-12-04T21:21:19.555Z,4.96
2018-12-04T21:23:50.119Z,4.96
2018-12-04T21:26:19.433Z,4.95
2018-12-04T21:28:54.147Z,4.96
2018-12-04T21:31:29.049Z,4.96
2018-12-04T21:34:03.971Z,4.95
2018-12-04T21:36:38.777Z,4.92
2018-12-04T21:39:11.145Z,4.90
2018-12-04T21:41:46.065Z,4.87
2018-12-04T21:44:21.027Z,4.82
2018-12-04T21:46:55.541Z,4.80
2018-12-04T21:49:24.238Z,4.74
2018-12-04T21:51:53.719Z,4.70
2018-12-04T21:54:22.978Z,4.67
2018-12-04T21:56:51.962Z,4.67
2018-12-04T21:59:21.232Z,4.67
2018-12-04T22:01:50.832Z,4.70
2018-12-04T22:04:20.164Z,4.69
2018-12-04T22:06:49.700Z,4.68
2018-12-04T22:09:18.977Z,4.65
2018-12-04T22:11:48.799Z,4.62
2018-12-04T22:14:18.076Z,4.59
2018-12-04T22:16:47.843Z,4.58
2018-12-04T22:19:17.120Z,4.55
2018-12-04T22:21:46.711Z,4.54
2018-12-04T22:24:15.783Z,4.55
2018-12-04T22:26:44.991Z,4.56
2018-12-04T22:29:14.269Z,4.59
2018-12-04T22:31:43.824Z,4.63
2018-12-04T22:34:13.100Z,4.62
2018-12-04T22:36:42.634Z,4.61
2018-12-04T22:39:11.909Z,4.60
2018-12-04T22:41:42.042Z,4.59
2018-12-04T22:44:11.302Z,4.61
2018-12-04T22:46:40.844Z,4.62
2018-12-04T22:49:09.777Z,4.61
2018-12-04T22:51:39.076Z,4.65
2018-12-04T22:54:08.326Z,4.68
2018-12-04T22:56:37.931Z,4.73
2018-12-04T22:59:07.147Z,4.76
2018-12-04T23:01:36.393Z,4.79
2018-12-04T23:04:05.279Z,4.80
2018-12-04T23:07:15.220Z,4.81
2018-12-04T23:09:44.507Z,4.81
2018-12-04T23:12:13.772Z,4.82
2018-12-04T23:14:43.060Z,4.83
2018-12-04T23:17:12.314Z,4.82
2018-12-04T23:19:41.587Z,4.79
2018-12-04T23:22:10.847Z,4.81
2018-12-04T23:24:40.145Z,4.81
2018-12-04T23:27:09.635Z,4.79
2018-12-04T23:29:38.943Z,4.77
2018-12-04T23:32:08.205Z,4.75
2018-12-04T23:34:37.485Z,4.73
2018-12-04T23:37:06.746Z,4.70
2018-12-04T23:39:36.024Z,4.70
2018-12-04T23:42:06.008Z,4.69
2018-12-04T23:44:35.269Z,4.69
2018-12-04T23:47:04.628Z,4.67
2018-12-04T23:49:33.896Z,4.65
2018-12-04T23:52:03.178Z,4.60
2018-12-04T23:54:32.673Z,4.61
2018-12-04T23:57:01.956Z,4.56
2018-12-04T23:59:31.206Z,4.61
